createdAt,value
2018-11-03T00:00:34.409Z,8.3
2018-11-03T00:01:41.341Z,8.3
2018-11-03T00:02:48.279Z,8.3
2018-11-03T00:03:55.257Z,8.3
2018-11-03T00:05:02.183Z,8.3
2018-11-03T00:06:09.113Z,8.2
2018-11-03T00:07:16.074Z,8.2
2018-11-03T00:08:23.317Z,8.2
2018-11-03T00:09:30.253Z,8.2
2018-11-03T00:10:37.179Z,8.2
2018-11-03T00:11:44.393Z,8.2
2018-11-03T00:12:51.608Z,8.2
2018-11-03T00:13:58.262Z,8.3
2018-11-03T00:15:05.471Z,8.2
2018-11-03T00:16:12.676Z,8.3
2018-11-03T00:17:19.891Z,8.3
2018-11-03T00:18:26.558Z,8.3
2018-11-03T00:19:33.764Z,8.3
2018-11-03T00:20:40.698Z,8.3
2018-11-03T00:21:47.899Z,8.3
2018-11-03T00:22:54.833Z,8.3
2018-11-03T00:24:02.034Z,8.3
2018-11-03T00:25:09.454Z,8.3
2018-11-03T00:26:16.671Z,8.3
2018-11-03T00:27:23.395Z,8.3
2018-11-03T00:28:30.047Z,8.3
2018-11-03T00:29:36.974Z,8.3
2018-11-03T00:30:43.905Z,8.3
2018-11-03T00:31:51.107Z,8.3
2018-11-03T00:32:58.038Z,8.3
2018-11-03T00:34:04.701Z,8.3
2018-11-03T00:35:11.657Z,8.3
2018-11-03T00:36:18.584Z,8.3
2018-11-03T00:37:25.244Z,8.4
2018-11-03T00:38:32.447Z,8.3
2018-11-03T00:39:39.650Z,8.4
2018-11-03T00:40:46.850Z,8.4
2018-11-03T00:41:54.054Z,8.4
2018-11-03T00:43:00.976Z,8.4
2018-11-03T00:44:07.904Z,8.4
2018-11-03T00:45:14.561Z,8.4
2018-11-03T00:46:21.773Z,8.4
2018-11-03T00:47:28.978Z,8.4
2018-11-03T00:48:36.176Z,8.4
2018-11-03T00:49:43.382Z,8.3
2018-11-03T00:50:50.356Z,8.3
2018-11-03T00:51:57.284Z,8.3
2018-11-03T00:53:04.544Z,8.3
2018-11-03T00:54:11.844Z,8.3
2018-11-03T00:55:18.511Z,8.3
2018-11-03T00:56:25.710Z,8.3
2018-11-03T00:57:32.378Z,8.3
2018-11-03T00:58:39.578Z,8.3
2018-11-03T00:59:46.797Z,8.3
2018-11-03T01:00:53.995Z,8.3
2018-11-03T01:02:01.197Z,8.3
2018-11-03T01:03:08.409Z,8.3
2018-11-03T01:04:15.604Z,8.3
2018-11-03T01:05:22.803Z,8.3
2018-11-03T01:06:29.727Z,8.3
2018-11-03T01:07:36.655Z,8.3
2018-11-03T01:08:43.897Z,8.3
2018-11-03T01:09:51.095Z,8.3
2018-11-03T01:10:58.304Z,8.2
2018-11-03T01:12:05.253Z,8.2
2018-11-03T01:13:12.178Z,8.2
2018-11-03T01:14:19.379Z,8.2
2018-11-03T01:15:26.304Z,8.2
2018-11-03T01:16:33.234Z,8.2
2018-11-03T01:17:40.174Z,8.2
2018-11-03T01:18:47.377Z,8.2
2018-11-03T01:19:54.583Z,8.2
2018-11-03T01:21:01.502Z,8.2
2018-11-03T01:22:08.702Z,8.2
2018-11-03T01:23:15.905Z,8.1
2018-11-03T01:24:22.832Z,8.2
2018-11-03T01:25:30.034Z,8.1
2018-11-03T01:26:37.237Z,8.1
2018-11-03T01:27:44.463Z,8.1
2018-11-03T01:28:51.390Z,8.1
2018-11-03T01:29:58.313Z,8.1
2018-11-03T01:31:05.242Z,8.1
2018-11-03T01:32:12.454Z,8.1
2018-11-03T01:33:19.125Z,8.1
2018-11-03T01:34:26.322Z,8.1
2018-11-03T01:35:33.486Z,8.1
2018-11-03T01:36:40.687Z,8.1
2018-11-03T01:37:47.889Z,8.1
2018-11-03T01:38:55.094Z,8.1
2018-11-03T01:40:02.324Z,8.1
2018-11-03T01:41:09.243Z,8.1
2018-11-03T01:42:16.172Z,8.1
2018-11-03T01:43:23.105Z,8.1
2018-11-03T01:44:30.335Z,8.1
2018-11-03T01:45:37.265Z,8.1
2018-11-03T01:46:44.201Z,8.1
2018-11-03T01:47:51.402Z,8.1
2018-11-03T01:48:58.091Z,8.1
2018-11-03T01:50:05.289Z,8.1
2018-11-03T01:51:12.214Z,8.1
2018-11-03T01:52:19.422Z,8.1
2018-11-03T01:53:26.078Z,8
2018-11-03T01:54:33.006Z,8
2018-11-03T01:55:39.936Z,8
2018-11-03T01:56:46.870Z,8
2018-11-03T01:57:53.805Z,8
2018-11-03T01:59:01.014Z,8
2018-11-03T02:00:08.004Z,8
2018-11-03T02:01:15.216Z,8
2018-11-03T02:02:22.139Z,8
2018-11-03T02:03:29.101Z,8
2018-11-03T02:04:36.303Z,7.9
2018-11-03T02:05:43.502Z,8
2018-11-03T02:06:50.433Z,7.9
2018-11-03T02:07:57.639Z,8
2018-11-03T02:09:04.295Z,8
2018-11-03T02:10:11.240Z,7.9
2018-11-03T02:11:17.889Z,7.9
2018-11-03T02:12:24.820Z,7.9
2018-11-03T02:13:31.742Z,7.9
2018-11-03T02:14:38.673Z,7.9
2018-11-03T02:15:45.602Z,7.9
2018-11-03T02:16:52.800Z,7.9
2018-11-03T02:17:59.783Z,7.9
2018-11-03T02:19:06.443Z,7.9
2018-11-03T02:20:13.096Z,7.8
2018-11-03T02:21:20.067Z,7.8
2018-11-03T02:22:27.267Z,7.9
2018-11-03T02:23:34.487Z,7.8
2018-11-03T02:24:41.140Z,7.8
2018-11-03T02:25:48.073Z,7.8
2018-11-03T02:26:54.995Z,7.8
2018-11-03T02:28:02.207Z,7.8
2018-11-03T02:29:09.412Z,7.8
2018-11-03T02:30:16.337Z,7.8
2018-11-03T02:31:22.988Z,7.8
2018-11-03T02:32:29.918Z,7.8
2018-11-03T02:33:36.567Z,7.8
2018-11-03T02:34:43.221Z,7.8
2018-11-03T02:35:50.139Z,7.7
2018-11-03T02:36:57.347Z,7.7
2018-11-03T02:38:04.272Z,7.7
2018-11-03T02:39:11.202Z,7.8
2018-11-03T02:40:18.399Z,7.7
2018-11-03T02:41:25.644Z,7.7
2018-11-03T02:42:32.847Z,7.7
2018-11-03T02:43:39.772Z,7.7
2018-11-03T02:44:46.702Z,7.7
2018-11-03T02:45:53.373Z,7.7
2018-11-03T02:47:00.289Z,7.7
2018-11-03T02:48:07.214Z,7.7
2018-11-03T02:49:14.148Z,7.6
2018-11-03T02:50:21.094Z,7.7
2018-11-03T02:51:27.847Z,7.7
2018-11-03T02:52:34.872Z,7.6
2018-11-03T02:53:42.094Z,7.6
2018-11-03T02:54:48.751Z,7.6
2018-11-03T02:55:55.952Z,7.5
2018-11-03T02:57:03.189Z,7.5
2018-11-03T02:58:09.834Z,7.5
2018-11-03T02:59:17.053Z,7.4
2018-11-03T03:00:25.093Z,7.5
2018-11-03T03:01:32.846Z,7.4
2018-11-03T03:02:40.966Z,7.5
2018-11-03T03:03:48.367Z,7.4
2018-11-03T03:04:55.516Z,7.4
2018-11-03T03:06:02.073Z,7.4
2018-11-03T03:07:09.136Z,7.4
2018-11-03T03:08:16.388Z,7.4
2018-11-03T03:09:23.588Z,7.4
2018-11-03T03:10:30.788Z,7.4
2018-11-03T03:11:37.714Z,7.5
2018-11-03T03:12:44.667Z,7.5
2018-11-03T03:13:51.874Z,7.4
2018-11-03T03:14:59.075Z,7.4
2018-11-03T03:16:06.284Z,7.5
2018-11-03T03:17:13.235Z,7.4
2018-11-03T03:18:20.432Z,7.4
2018-11-03T03:19:27.713Z,7.4
2018-11-03T03:20:34.960Z,7.4
2018-11-03T03:21:41.912Z,7.4
2018-11-03T03:22:48.833Z,7.4
2018-11-03T03:23:55.763Z,7.4
2018-11-03T03:25:02.956Z,7.4
2018-11-03T03:26:09.882Z,7.4
2018-11-03T03:27:16.809Z,7.4
2018-11-03T03:28:24.013Z,7.4
2018-11-03T03:29:31.554Z,7.4
2018-11-03T03:30:39.150Z,7.4
2018-11-03T03:31:46.094Z,7.4
2018-11-03T03:32:53.069Z,7.4
2018-11-03T03:34:00.025Z,7.4
2018-11-03T03:35:06.892Z,7.4
2018-11-03T03:36:13.553Z,7.4
2018-11-03T03:37:20.755Z,7.4
2018-11-03T03:38:27.686Z,7.4
2018-11-03T03:39:34.612Z,7.5
2018-11-03T03:40:41.543Z,7.5
2018-11-03T03:41:48.491Z,7.5
2018-11-03T03:42:55.690Z,7.4
2018-11-03T03:44:02.882Z,7.4
2018-11-03T03:45:09.820Z,7.4
2018-11-03T03:46:17.025Z,7.4
2018-11-03T03:47:23.962Z,7.4
2018-11-03T03:48:30.897Z,7.4
2018-11-03T03:49:38.097Z,7.5
2018-11-03T03:50:45.300Z,7.4
2018-11-03T03:51:52.239Z,7.4
2018-11-03T03:52:59.160Z,7.4
2018-11-03T03:54:06.363Z,7.4
2018-11-03T03:55:13.564Z,7.4
2018-11-03T03:56:20.495Z,7.4
2018-11-03T03:57:27.693Z,7.4
2018-11-03T03:58:34.628Z,7.4
2018-11-03T03:59:41.863Z,7.4
2018-11-03T04:00:49.058Z,7.4
2018-11-03T04:01:56.019Z,7.4
2018-11-03T04:03:03.222Z,7.4
2018-11-03T04:04:10.430Z,7.4
2018-11-03T04:05:17.634Z,7.4
2018-11-03T04:06:24.531Z,7.4
2018-11-03T04:07:31.541Z,7.4
2018-11-03T04:08:38.201Z,7.4
2018-11-03T04:09:45.128Z,7.4
2018-11-03T04:10:52.325Z,7.4
2018-11-03T04:11:59.261Z,7.4
2018-11-03T04:13:05.911Z,7.4
2018-11-03T04:14:13.126Z,7.4
2018-11-03T04:15:20.336Z,7.4
2018-11-03T04:16:27.541Z,7.4
2018-11-03T04:17:34.473Z,7.4
2018-11-03T04:18:41.676Z,7.4
2018-11-03T04:19:48.346Z,7.4
2018-11-03T04:20:55.273Z,7.4
2018-11-03T04:22:02.474Z,7.4
2018-11-03T04:23:09.401Z,7.4
2018-11-03T04:24:16.605Z,7.3
2018-11-03T04:25:23.620Z,7.3
2018-11-03T04:26:30.555Z,7.3
2018-11-03T04:27:37.499Z,7.4
2018-11-03T04:28:44.710Z,7.4
2018-11-03T04:29:51.913Z,7.4
2018-11-03T04:30:58.836Z,7.4
2018-11-03T04:32:05.765Z,7.3
2018-11-03T04:33:12.148Z,7.4
2018-11-03T04:34:19.353Z,7.4
2018-11-03T04:35:26.551Z,7.4
2018-11-03T04:36:33.480Z,7.4
2018-11-03T04:37:40.147Z,7.4
2018-11-03T04:38:47.345Z,7.3
2018-11-03T04:39:54.282Z,7.3
2018-11-03T04:41:01.209Z,7.3
2018-11-03T04:42:08.144Z,7.4
2018-11-03T04:43:15.075Z,7.3
2018-11-03T04:44:22.273Z,7.4
2018-11-03T04:45:29.743Z,7.4
2018-11-03T04:46:37.108Z,7.4
2018-11-03T04:47:44.311Z,7.4
2018-11-03T04:48:50.970Z,7.4
2018-11-03T04:49:58.170Z,7.4
2018-11-03T04:51:05.368Z,7.4
2018-11-03T04:52:12.617Z,7.4
2018-11-03T04:53:19.818Z,7.4
2018-11-03T04:54:26.741Z,7.4
2018-11-03T04:55:33.741Z,7.4
2018-11-03T04:56:40.664Z,7.4
2018-11-03T04:57:47.863Z,7.4
2018-11-03T04:58:55.079Z,7.4
2018-11-03T05:00:02.142Z,7.4
2018-11-03T05:01:09.341Z,7.4
2018-11-03T05:02:16.001Z,7.4
2018-11-03T05:03:23.202Z,7.4
2018-11-03T05:04:30.403Z,7.4
2018-11-03T05:05:37.600Z,7.4
2018-11-03T05:06:44.535Z,7.4
2018-11-03T05:07:51.740Z,7.4
2018-11-03T05:08:58.946Z,7.4
2018-11-03T05:10:06.215Z,7.4
2018-11-03T05:11:13.506Z,7.4
2018-11-03T05:12:20.430Z,7.4
2018-11-03T05:13:27.642Z,7.4
2018-11-03T05:14:34.564Z,7.4
2018-11-03T05:15:41.494Z,7.4
2018-11-03T05:16:48.694Z,7.4
2018-11-03T05:17:55.619Z,7.4
2018-11-03T05:19:02.543Z,7.4
2018-11-03T05:20:09.745Z,7.4
2018-11-03T05:21:17.204Z,7.4
2018-11-03T05:22:24.694Z,7.4
2018-11-03T05:23:31.912Z,7.4
2018-11-03T05:24:39.149Z,7.4
2018-11-03T05:25:46.084Z,7.4
2018-11-03T05:26:53.283Z,7.3
2018-11-03T05:28:00.220Z,7.4
2018-11-03T05:29:07.476Z,7.3
2018-11-03T05:30:14.410Z,7.3
2018-11-03T05:31:21.915Z,7.3
2018-11-03T05:32:29.564Z,7.3
2018-11-03T05:33:36.779Z,7.4
2018-11-03T05:34:43.997Z,7.3
2018-11-03T05:35:50.933Z,7.3
2018-11-03T05:36:57.874Z,7.3
2018-11-03T05:38:04.796Z,7.3
2018-11-03T05:39:12.001Z,7.3
2018-11-03T05:40:18.928Z,7.3
2018-11-03T05:41:26.132Z,7.3
2018-11-03T05:42:33.081Z,7.3
2018-11-03T05:43:40.274Z,7.3
2018-11-03T05:44:46.938Z,7.3
2018-11-03T05:45:54.158Z,7.3
2018-11-03T05:47:01.363Z,7.3
2018-11-03T05:48:08.299Z,7.3
2018-11-03T05:49:15.233Z,7.3
2018-11-03T05:50:22.162Z,7.3
2018-11-03T05:51:29.111Z,7.3
2018-11-03T05:52:36.303Z,7.3
2018-11-03T05:53:43.231Z,7.3
2018-11-03T05:54:50.443Z,7.3
2018-11-03T05:55:57.372Z,7.2
2018-11-03T05:57:04.323Z,7.3
2018-11-03T05:58:10.982Z,7.2
2018-11-03T05:59:18.216Z,7.2
2018-11-03T06:00:25.147Z,7.2
2018-11-03T06:01:31.829Z,7.2
2018-11-03T06:02:38.755Z,7.2
2018-11-03T06:03:45.681Z,7.2
2018-11-03T06:04:52.929Z,7.2
2018-11-03T06:05:59.847Z,7.2
2018-11-03T06:07:06.527Z,7.2
2018-11-03T06:08:13.727Z,7.2
2018-11-03T06:09:21.238Z,7.2
2018-11-03T06:10:29.117Z,7.2
2018-11-03T06:11:36.813Z,7.2
2018-11-03T06:12:44.471Z,7.2
2018-11-03T06:13:51.419Z,7.1
2018-11-03T06:14:58.774Z,7.1
2018-11-03T06:16:05.704Z,7.1
2018-11-03T06:17:12.904Z,7.1
2018-11-03T06:18:19.868Z,7.1
2018-11-03T06:19:27.075Z,7.1
2018-11-03T06:20:34.313Z,7.1
2018-11-03T06:21:41.245Z,7.1
2018-11-03T06:22:48.503Z,7.1
2018-11-03T06:23:55.511Z,7
2018-11-03T06:25:02.440Z,7.1
2018-11-03T06:26:09.372Z,7
2018-11-03T06:27:16.595Z,7
2018-11-03T06:28:23.524Z,7
2018-11-03T06:29:30.743Z,7
2018-11-03T06:30:37.673Z,7
2018-11-03T06:31:44.870Z,7
2018-11-03T06:32:51.798Z,7
2018-11-03T06:33:58.793Z,7
2018-11-03T06:35:06.215Z,7
2018-11-03T06:36:12.880Z,7
2018-11-03T06:37:19.836Z,7
2018-11-03T06:38:27.053Z,7
2018-11-03T06:39:33.987Z,7
2018-11-03T06:40:40.108Z,7
2018-11-03T06:41:47.023Z,7
2018-11-03T06:42:54.231Z,7.1
2018-11-03T06:44:01.155Z,7
2018-11-03T06:45:08.101Z,7.1
2018-11-03T06:46:14.745Z,7.1
2018-11-03T06:47:22.081Z,7.1
2018-11-03T06:48:29.618Z,7.1
2018-11-03T06:49:36.822Z,7.1
2018-11-03T06:50:44.026Z,7.1
2018-11-03T06:51:51.235Z,7.1
2018-11-03T06:52:58.432Z,7.1
2018-11-03T06:54:05.358Z,7.2
2018-11-03T06:55:12.586Z,7.2
2018-11-03T06:56:18.965Z,7.2
2018-11-03T06:57:26.226Z,7.2
2018-11-03T06:58:33.428Z,7.2
2018-11-03T06:59:40.641Z,7.2
2018-11-03T07:00:47.565Z,7.3
2018-11-03T07:01:54.774Z,7.3
2018-11-03T07:03:01.987Z,7.3
2018-11-03T07:04:08.629Z,7.3
2018-11-03T07:05:16.046Z,7.4
2018-11-03T07:06:23.564Z,7.4
2018-11-03T07:07:30.538Z,7.4
2018-11-03T07:08:37.739Z,7.5
2018-11-03T07:09:44.983Z,7.6
2018-11-03T07:10:51.916Z,7.7
2018-11-03T07:11:59.320Z,7.8
2018-11-03T07:13:07.000Z,7.9
2018-11-03T07:14:14.439Z,8
2018-11-03T07:15:21.647Z,8
2018-11-03T07:16:28.859Z,8.1
2018-11-03T07:17:35.543Z,8.2
2018-11-03T07:18:42.752Z,8.3
2018-11-03T07:19:49.956Z,8.3
2018-11-03T07:20:56.882Z,8.2
2018-11-03T07:22:03.567Z,8.2
2018-11-03T07:23:10.783Z,8.2
2018-11-03T07:24:17.412Z,8.2
2018-11-03T07:25:24.337Z,8.1
2018-11-03T07:26:31.545Z,8
2018-11-03T07:27:38.473Z,8
2018-11-03T07:28:45.689Z,7.9
2018-11-03T07:29:52.898Z,8
2018-11-03T07:31:00.082Z,8
2018-11-03T07:32:07.291Z,8.1
2018-11-03T07:33:14.491Z,8.2
2018-11-03T07:34:21.427Z,8.3
2018-11-03T07:35:28.359Z,8.3
2018-11-03T07:36:35.307Z,8.5
2018-11-03T07:37:42.508Z,8.5
2018-11-03T07:38:49.716Z,8.6
2018-11-03T07:39:56.373Z,8.6
2018-11-03T07:41:03.109Z,8.6
2018-11-03T07:42:10.778Z,8.6
2018-11-03T07:43:17.710Z,8.7
2018-11-03T07:44:24.928Z,8.8
2018-11-03T07:45:32.133Z,8.9
2018-11-03T07:46:39.060Z,9
2018-11-03T07:47:46.275Z,9
2018-11-03T07:48:53.738Z,9.1
2018-11-03T07:50:00.980Z,9.1
2018-11-03T07:51:08.181Z,9.2
2018-11-03T07:52:15.385Z,9.1
2018-11-03T07:53:22.317Z,9.1
2018-11-03T07:54:29.686Z,8.9
2018-11-03T07:55:37.076Z,8.8
2018-11-03T07:56:43.745Z,8.9
2018-11-03T07:57:50.947Z,8.9
2018-11-03T07:58:58.144Z,9
2018-11-03T08:00:05.103Z,9
2018-11-03T08:01:12.042Z,9
2018-11-03T08:02:18.712Z,8.9
2018-11-03T08:03:25.921Z,8.9
2018-11-03T08:04:33.127Z,9
2018-11-03T08:05:40.066Z,9
2018-11-03T08:06:46.712Z,9
2018-11-03T08:07:53.915Z,8.9
2018-11-03T08:09:01.391Z,9
2018-11-03T08:10:08.778Z,9
2018-11-03T08:11:15.713Z,8.9
2018-11-03T08:12:22.936Z,8.9
2018-11-03T08:13:30.143Z,8.7
2018-11-03T08:14:37.452Z,8.6
2018-11-03T08:15:44.947Z,8.6
2018-11-03T08:16:52.441Z,8.6
2018-11-03T08:17:59.645Z,8.5
2018-11-03T08:19:06.845Z,8.5
2018-11-03T08:20:14.054Z,8.5
2018-11-03T08:22:34.251Z,8.5
2018-11-03T08:23:40.968Z,8.4
2018-11-03T08:24:47.960Z,8.4
2018-11-03T08:25:55.165Z,8.3
2018-11-03T08:27:02.374Z,8.3
2018-11-03T08:28:09.306Z,8.3
2018-11-03T08:29:15.967Z,8.3
2018-11-03T08:30:22.898Z,8.4
2018-11-03T08:31:30.077Z,8.4
2018-11-03T08:32:37.316Z,8.5
2018-11-03T08:33:43.967Z,8.4
2018-11-03T08:34:50.897Z,8.5
2018-11-03T08:35:57.827Z,8.4
2018-11-03T08:37:05.030Z,8.4
2018-11-03T08:38:11.968Z,8.4
2018-11-03T08:39:18.989Z,8.4
2018-11-03T08:40:25.670Z,8.3
2018-11-03T08:41:32.324Z,8.4
2018-11-03T08:42:38.709Z,8.4
2018-11-03T08:43:45.915Z,8.4
2018-11-03T08:44:52.840Z,8.4
2018-11-03T08:46:00.045Z,8.5
2018-11-03T08:47:06.971Z,8.4
2018-11-03T08:48:13.975Z,8.4
2018-11-03T08:49:20.460Z,8.5
2018-11-03T08:50:27.669Z,8.6
2018-11-03T08:51:34.335Z,8.6
2018-11-03T08:52:41.542Z,8.6
2018-11-03T08:53:48.753Z,8.5
2018-11-03T08:54:55.956Z,8.4
2018-11-03T08:56:03.160Z,8.5
2018-11-03T08:57:10.097Z,8.5
2018-11-03T08:58:17.035Z,8.6
2018-11-03T08:59:24.027Z,8.7
2018-11-03T09:00:31.388Z,8.8
2018-11-03T09:01:38.335Z,8.9
2018-11-03T09:02:44.998Z,9
2018-11-03T09:03:52.208Z,9
2018-11-03T09:04:59.152Z,9
2018-11-03T09:06:06.099Z,9
2018-11-03T09:07:13.413Z,9
2018-11-03T09:08:21.460Z,9.1
2018-11-03T09:09:28.719Z,9
2018-11-03T09:10:37.029Z,8.9
2018-11-03T09:11:44.432Z,8.9
2018-11-03T09:12:51.784Z,8.8
2018-11-03T09:13:58.712Z,8.8
2018-11-03T09:15:06.138Z,8.8
2018-11-03T09:16:13.801Z,8.8
2018-11-03T09:17:20.726Z,8.7
2018-11-03T09:18:27.664Z,8.7
2018-11-03T09:19:34.870Z,8.7
2018-11-03T09:20:42.073Z,8.8
2018-11-03T09:21:48.816Z,8.8
2018-11-03T09:22:56.137Z,8.8
2018-11-03T09:24:03.064Z,8.8
2018-11-03T09:25:10.283Z,8.8
2018-11-03T09:26:17.211Z,8.8
2018-11-03T09:27:24.212Z,8.8
2018-11-03T09:28:31.458Z,8.8
2018-11-03T09:29:38.673Z,8.8
2018-11-03T09:30:45.971Z,8.9
2018-11-03T09:31:53.125Z,8.9
2018-11-03T09:32:59.866Z,8.9
2018-11-03T09:34:06.793Z,8.9
2018-11-03T09:35:13.715Z,8.9
2018-11-03T09:36:20.925Z,8.9
2018-11-03T09:37:27.575Z,8.9
2018-11-03T09:38:34.642Z,8.8
2018-11-03T09:39:41.532Z,8.8
2018-11-03T09:40:48.463Z,8.9
2018-11-03T09:41:55.668Z,8.9
2018-11-03T09:43:03.192Z,8.9
2018-11-03T09:44:10.334Z,8.8
2018-11-03T09:45:17.533Z,8.8
2018-11-03T09:46:24.733Z,8.8
2018-11-03T09:47:31.409Z,8.8
2018-11-03T09:48:38.611Z,8.8
2018-11-03T09:49:45.837Z,8.8
2018-11-03T09:50:53.113Z,8.9
2018-11-03T09:52:00.142Z,8.8
2018-11-03T09:53:07.342Z,8.9
2018-11-03T09:54:13.999Z,8.9
2018-11-03T09:55:20.929Z,9
2018-11-03T09:56:28.289Z,9
2018-11-03T09:57:35.322Z,9
2018-11-03T09:58:42.253Z,9.1
2018-11-03T09:59:49.457Z,9.1
2018-11-03T10:00:56.666Z,9.1
2018-11-03T10:02:03.877Z,9.1
2018-11-03T10:03:10.809Z,9.1
2018-11-03T10:04:17.753Z,9.2
2018-11-03T10:05:24.958Z,9.3
2018-11-03T10:06:32.350Z,9.4
2018-11-03T10:07:39.963Z,9.5
2018-11-03T10:08:47.173Z,9.5
2018-11-03T10:09:54.378Z,9.7
2018-11-03T10:11:01.600Z,9.8
2018-11-03T10:12:08.813Z,9.8
2018-11-03T10:13:15.466Z,9.9
2018-11-03T10:14:22.701Z,10
2018-11-03T10:15:29.903Z,10.1
2018-11-03T10:16:37.106Z,10.4
2018-11-03T10:17:44.307Z,10.6
2018-11-03T10:18:51.571Z,10.6
2018-11-03T10:19:58.770Z,10.6
2018-11-03T10:21:05.724Z,10.6
2018-11-03T10:22:13.167Z,10.7
2018-11-03T10:23:20.523Z,10.6
2018-11-03T10:24:27.730Z,10.4
2018-11-03T10:25:34.377Z,10.2
2018-11-03T10:26:41.584Z,10.2
2018-11-03T10:27:48.292Z,10.1
2018-11-03T10:28:55.505Z,10.1
2018-11-03T10:30:02.168Z,10.2
2018-11-03T10:31:09.375Z,10.1
2018-11-03T10:32:16.306Z,10.1
2018-11-03T10:33:23.556Z,10.1
2018-11-03T10:34:30.251Z,10.2
2018-11-03T10:35:37.186Z,10.2
2018-11-03T10:36:43.843Z,10.3
2018-11-03T10:37:50.597Z,10.3
2018-11-03T10:38:57.600Z,10.4
2018-11-03T10:40:04.246Z,10.3
2018-11-03T10:41:11.447Z,10.4
2018-11-03T10:42:18.451Z,10.4
2018-11-03T10:43:25.191Z,10.5
2018-11-03T10:44:32.124Z,10.5
2018-11-03T10:45:39.350Z,10.5
2018-11-03T10:46:46.544Z,10.5
2018-11-03T10:47:53.766Z,10.8
2018-11-03T10:49:00.708Z,11
2018-11-03T10:50:07.918Z,11
2018-11-03T10:51:14.574Z,11.1
2018-11-03T10:52:21.784Z,11.1
2018-11-03T10:53:28.837Z,11.1
2018-11-03T10:54:35.921Z,11.1
2018-11-03T10:55:43.123Z,11.2
2018-11-03T10:56:50.051Z,11.1
2018-11-03T10:57:57.260Z,11
2018-11-03T10:59:04.473Z,11
2018-11-03T11:00:11.678Z,11
2018-11-03T11:01:18.646Z,11.1
2018-11-03T11:02:25.300Z,11
2018-11-03T11:03:32.716Z,11
2018-11-03T11:04:39.352Z,11
2018-11-03T11:05:46.302Z,11
2018-11-03T11:06:53.505Z,11
2018-11-03T11:08:00.441Z,11.1
2018-11-03T11:09:07.387Z,11.1
2018-11-03T11:10:14.055Z,11.1
2018-11-03T11:11:21.257Z,11.1
2018-11-03T11:12:27.639Z,11.2
2018-11-03T11:14:47.975Z,11.4
2018-11-03T11:15:55.646Z,11.5
2018-11-03T11:17:04.631Z,11.4
2018-11-03T11:18:12.194Z,11.4
2018-11-03T11:19:19.195Z,11.4
2018-11-03T11:20:26.178Z,11.3
2018-11-03T11:21:33.165Z,11.3
2018-11-03T11:22:40.079Z,11.3
2018-11-03T11:23:47.294Z,11.3
2018-11-03T11:24:55.043Z,11.3
2018-11-03T11:26:02.819Z,11.4
2018-11-03T11:27:09.466Z,11.4
2018-11-03T11:28:16.672Z,11.5
2018-11-03T11:29:23.917Z,11.3
2018-11-03T11:30:31.127Z,11.3
2018-11-03T11:31:38.421Z,11.4
2018-11-03T11:32:46.274Z,11.4
2018-11-03T11:33:53.380Z,11.4
2018-11-03T11:34:59.772Z,11.4
2018-11-03T11:36:06.702Z,11.6
2018-11-03T11:37:13.632Z,11.6
2018-11-03T11:38:20.573Z,11.7
2018-11-03T11:39:27.503Z,11.8
2018-11-03T11:40:34.165Z,11.9
2018-11-03T11:41:40.828Z,11.8
2018-11-03T11:42:48.060Z,11.6
2018-11-03T11:43:55.050Z,11.7
2018-11-03T11:45:02.050Z,11.7
2018-11-03T11:46:08.667Z,11.7
2018-11-03T11:47:15.871Z,11.7
2018-11-03T11:48:22.545Z,11.7
2018-11-03T11:49:29.479Z,11.9
2018-11-03T11:50:36.159Z,11.9
2018-11-03T11:51:42.818Z,11.9
2018-11-03T11:52:50.031Z,11.8
2018-11-03T11:53:57.230Z,11.8
2018-11-03T11:55:04.329Z,11.7
2018-11-03T11:56:12.060Z,11.5
2018-11-03T11:57:19.265Z,11.4
2018-11-03T11:58:25.666Z,11.3
2018-11-03T11:59:32.045Z,11.3
2018-11-03T12:00:39.151Z,11.4
2018-11-03T12:01:45.834Z,11.6
2018-11-03T12:02:52.804Z,11.7
2018-11-03T12:03:59.456Z,11.8
2018-11-03T12:05:06.384Z,11.9
2018-11-03T12:06:13.315Z,12
2018-11-03T12:07:20.259Z,11.9
2018-11-03T12:08:27.185Z,11.9
2018-11-03T12:09:34.111Z,11.8
2018-11-03T12:10:41.332Z,11.6
2018-11-03T12:11:48.268Z,11.7
2018-11-03T12:12:55.204Z,11.8
2018-11-03T12:14:01.862Z,11.9
2018-11-03T12:15:09.084Z,12
2018-11-03T12:16:16.643Z,12.1
2018-11-03T12:17:23.861Z,12.1
2018-11-03T12:18:30.793Z,12
2018-11-03T12:19:38.001Z,12.1
2018-11-03T12:20:44.935Z,12.1
2018-11-03T12:21:51.898Z,12.1
2018-11-03T12:22:58.833Z,12
2018-11-03T12:24:05.775Z,12.1
2018-11-03T12:25:12.708Z,12.2
2018-11-03T12:26:19.939Z,12.4
2018-11-03T12:27:26.588Z,12.5
2018-11-03T12:28:33.512Z,12.6
2018-11-03T12:29:40.466Z,12.7
2018-11-03T12:30:47.391Z,12.7
2018-11-03T12:31:54.051Z,12.5
2018-11-03T12:33:01.377Z,12.4
2018-11-03T12:34:08.575Z,12.6
2018-11-03T12:35:15.531Z,12.6
2018-11-03T12:36:22.806Z,12.4
2018-11-03T12:37:29.770Z,12.4
2018-11-03T12:38:36.753Z,12.4
2018-11-03T12:39:43.961Z,12.2
2018-11-03T12:40:51.148Z,12.3
2018-11-03T12:41:58.209Z,12.5
2018-11-03T12:43:05.420Z,12.5
2018-11-03T12:44:12.632Z,12.6
2018-11-03T12:45:19.845Z,12.5
2018-11-03T12:46:27.070Z,12.4
2018-11-03T12:47:34.306Z,12.4
2018-11-03T12:48:41.255Z,12.4
2018-11-03T12:49:48.224Z,12.4
2018-11-03T12:50:55.479Z,12.4
2018-11-03T12:52:02.415Z,12.4
2018-11-03T12:53:09.625Z,12.4
2018-11-03T12:54:16.848Z,12.4
2018-11-03T12:55:23.610Z,12.4
2018-11-03T12:56:30.714Z,12.5
2018-11-03T12:57:37.403Z,12.6
2018-11-03T12:58:44.354Z,12.6
2018-11-03T12:59:51.563Z,12.5
2018-11-03T13:00:58.808Z,12.6
2018-11-03T13:02:06.025Z,12.6
2018-11-03T13:03:12.796Z,12.5
2018-11-03T13:04:20.175Z,12.5
2018-11-03T13:05:27.385Z,12.4
2018-11-03T13:06:34.163Z,12.5
2018-11-03T13:07:40.877Z,12.5
2018-11-03T13:08:48.095Z,12.5
2018-11-03T13:09:54.819Z,12.6
2018-11-03T13:11:01.792Z,12.6
2018-11-03T13:12:08.810Z,12.4
2018-11-03T13:13:16.311Z,12.2
2018-11-03T13:14:23.245Z,12.2
2018-11-03T13:15:30.176Z,12.3
2018-11-03T13:16:37.115Z,12.3
2018-11-03T13:17:44.324Z,12.1
2018-11-03T13:18:50.994Z,12
2018-11-03T13:19:57.374Z,12.1
2018-11-03T13:21:04.318Z,12.1
2018-11-03T13:22:11.529Z,12.1
2018-11-03T13:23:18.787Z,12.2
2018-11-03T13:24:25.994Z,12.2
2018-11-03T13:25:33.202Z,12.1
2018-11-03T13:26:40.139Z,12.1
2018-11-03T13:27:47.340Z,12.1
2018-11-03T13:28:54.284Z,12.1
2018-11-03T13:30:01.493Z,12.1
2018-11-03T13:31:08.707Z,12.2
2018-11-03T13:32:15.099Z,12.2
2018-11-03T13:33:21.755Z,12.3
2018-11-03T13:34:28.958Z,12.3
2018-11-03T13:35:36.171Z,12.3
2018-11-03T13:36:43.135Z,12.3
2018-11-03T13:37:50.345Z,12.2
2018-11-03T13:38:57.549Z,12.2
2018-11-03T13:40:04.211Z,12.2
2018-11-03T13:41:10.866Z,12.3
2018-11-03T13:42:17.806Z,12.4
2018-11-03T13:43:25.026Z,12.5
2018-11-03T13:44:31.963Z,12.5
2018-11-03T13:45:38.614Z,12.6
2018-11-03T13:46:45.564Z,12.5
2018-11-03T13:47:52.910Z,12.4
2018-11-03T13:49:00.006Z,12.4
2018-11-03T13:50:06.954Z,12.3
2018-11-03T13:51:14.159Z,12.3
2018-11-03T13:52:21.091Z,12.4
2018-11-03T13:53:28.300Z,12.3
2018-11-03T13:54:34.955Z,12.2
2018-11-03T13:55:42.167Z,12.2
2018-11-03T13:56:49.461Z,12.3
2018-11-03T13:57:56.727Z,12.4
2018-11-03T13:59:03.662Z,12.4
2018-11-03T14:00:10.867Z,12.4
2018-11-03T14:01:17.807Z,12.5
2018-11-03T14:02:24.465Z,12.5
2018-11-03T14:03:31.402Z,12.6
2018-11-03T14:04:38.338Z,12.6
2018-11-03T14:05:45.283Z,12.5
2018-11-03T14:06:51.958Z,12.4
2018-11-03T14:07:58.621Z,12.3
2018-11-03T14:09:05.563Z,12.3
2018-11-03T14:10:12.775Z,12.3
2018-11-03T14:11:19.764Z,12.3
2018-11-03T14:12:26.990Z,12.2
2018-11-03T14:13:34.192Z,12.2
2018-11-03T14:14:41.131Z,12.2
2018-11-03T14:15:48.059Z,12.1
2018-11-03T14:16:55.340Z,12.2
2018-11-03T14:18:02.312Z,12.3
2018-11-03T14:19:09.524Z,12.2
2018-11-03T14:20:16.465Z,12.3
2018-11-03T14:21:22.854Z,12.3
2018-11-03T14:22:29.786Z,12.4
2018-11-03T14:23:36.798Z,12.3
2018-11-03T14:24:44.501Z,12.2
2018-11-03T14:25:51.417Z,12.2
2018-11-03T14:26:58.625Z,12.2
2018-11-03T14:28:05.980Z,12.2
2018-11-03T14:29:13.759Z,12.2
2018-11-03T14:30:20.137Z,12.2
2018-11-03T14:31:27.076Z,12.2
2018-11-03T14:32:34.291Z,12.2
2018-11-03T14:33:41.227Z,12.3
2018-11-03T14:34:48.161Z,12.4
2018-11-03T14:35:55.374Z,12.4
2018-11-03T14:37:02.033Z,12.3
2018-11-03T14:38:09.240Z,12.2
2018-11-03T14:39:15.624Z,12.3
2018-11-03T14:40:22.005Z,12.3
2018-11-03T14:41:28.953Z,12.3
2018-11-03T14:42:35.613Z,12.3
2018-11-03T14:43:42.818Z,12.3
2018-11-03T14:44:50.018Z,12.3
2018-11-03T14:45:56.905Z,12.3
2018-11-03T14:47:03.888Z,12.3
2018-11-03T14:48:10.822Z,12.3
2018-11-03T14:49:17.771Z,12.3
2018-11-03T14:50:24.970Z,12.3
2018-11-03T14:51:32.171Z,12.3
2018-11-03T14:52:39.380Z,12.3
2018-11-03T14:53:46.311Z,12.3
2018-11-03T14:54:52.974Z,12.2
2018-11-03T14:56:00.177Z,12.1
2018-11-03T14:57:07.109Z,12.1
2018-11-03T14:58:14.320Z,12.1
2018-11-03T14:59:21.254Z,12.1
2018-11-03T15:00:27.920Z,12.1
2018-11-03T15:01:34.861Z,12.1
2018-11-03T15:02:42.069Z,12
2018-11-03T15:03:48.996Z,12
2018-11-03T15:04:55.649Z,12
2018-11-03T15:06:02.852Z,12
2018-11-03T15:07:10.065Z,12
2018-11-03T15:08:17.354Z,12
2018-11-03T15:09:24.630Z,12
2018-11-03T15:10:31.836Z,11.9
2018-11-03T15:11:39.044Z,11.9
2018-11-03T15:12:45.975Z,11.9
2018-11-03T15:13:53.561Z,11.9
2018-11-03T15:15:01.118Z,11.9
2018-11-03T15:16:08.934Z,11.8
2018-11-03T15:17:16.145Z,11.8
2018-11-03T15:18:23.081Z,11.8
2018-11-03T15:19:30.284Z,11.8
2018-11-03T15:20:37.218Z,11.7